createdAt,value
2023-03-04T00:01:51.369Z,1.13
2023-03-04T00:04:18.439Z,1.57
2023-03-04T00:06:44.950Z,1.97
2023-03-04T00:09:11.488Z,2.13
2023-03-04T00:11:38.155Z,2.40
2023-03-04T00:14:04.625Z,3.03
2023-03-04T00:16:31.209Z,2.00
2023-03-04T00:18:57.936Z,2.57
2023-03-04T00:21:24.738Z,1.53
2023-03-04T00:23:51.583Z,1.90
2023-03-04T00:26:18.260Z,1.97
2023-03-04T00:28:45.017Z,2.77
2023-03-04T00:31:11.679Z,2.37
2023-03-04T00:33:38.236Z,2.93
2023-03-04T00:36:05.287Z,1.63
2023-03-04T00:38:31.768Z,1.53
2023-03-04T00:40:58.309Z,1.50
2023-03-04T00:43:24.824Z,0.83
2023-03-04T00:45:51.381Z,1.63
2023-03-04T00:48:18.027Z,2.90
2023-03-04T00:50:44.542Z,2.57
2023-03-04T00:53:11.227Z,1.97
2023-03-04T00:55:37.877Z,2.30
2023-03-04T00:58:04.348Z,1.87
2023-03-04T01:00:30.839Z,2.17
2023-03-04T01:02:57.428Z,1.60
2023-03-04T01:05:24.163Z,2.23
2023-03-04T01:07:50.707Z,3.03
2023-03-04T01:10:17.547Z,2.57
2023-03-04T01:12:44.108Z,1.67
2023-03-04T01:15:12.775Z,2.60
2023-03-04T01:17:39.302Z,2.90
2023-03-04T01:20:07.264Z,2.27
2023-03-04T01:22:33.962Z,1.40
2023-03-04T01:25:00.449Z,1.53
2023-03-04T01:27:27.081Z,0.60
2023-03-04T01:29:53.594Z,2.03
2023-03-04T01:32:20.159Z,2.03
2023-03-04T01:34:46.706Z,0.90
2023-03-04T01:37:16.100Z,1.67
2023-03-04T01:39:42.576Z,2.20
2023-03-04T01:42:20.345Z,1.83
2023-03-04T01:44:47.573Z,1.27
2023-03-04T01:47:14.340Z,0.90
2023-03-04T01:49:41.242Z,1.67
2023-03-04T01:52:12.952Z,1.10
2023-03-04T01:54:40.410Z,1.97
2023-03-04T01:57:16.626Z,0.97
2023-03-04T01:59:43.302Z,1.33
2023-03-04T02:02:09.883Z,1.70
2023-03-04T02:04:36.598Z,2.47
2023-03-04T02:07:04.311Z,1.37
2023-03-04T02:09:31.790Z,2.30
2023-03-04T02:11:58.451Z,1.53
2023-03-04T02:14:25.303Z,1.77
2023-03-04T02:16:52.102Z,1.63
2023-03-04T02:19:41.173Z,2.07
2023-03-04T02:22:08.156Z,0.60
2023-03-04T02:24:42.625Z,1.07
2023-03-04T02:27:09.428Z,1.70
2023-03-04T02:29:35.967Z,0.47
2023-03-04T02:32:02.554Z,0.50
2023-03-04T02:34:31.251Z,0.50
2023-03-04T02:36:58.086Z,1.63
2023-03-04T02:39:34.482Z,0.30
2023-03-04T02:42:02.601Z,0.43
2023-03-04T02:44:30.930Z,1.33
2023-03-04T02:46:58.486Z,2.67
2023-03-04T02:49:27.143Z,1.47
2023-03-04T02:52:16.984Z,1.30
2023-03-04T02:54:43.528Z,1.40
2023-03-04T02:57:11.660Z,1.73
2023-03-04T02:59:40.019Z,1.23
2023-03-04T03:02:07.821Z,1.13
2023-03-04T03:04:36.442Z,1.43
2023-03-04T03:07:03.373Z,0.83
2023-03-04T03:09:29.864Z,0.60
2023-03-04T03:11:56.395Z,2.33
2023-03-04T03:14:22.927Z,0.40
2023-03-04T03:16:49.396Z,0.50
2023-03-04T03:19:15.920Z,0.40
2023-03-04T03:21:42.416Z,0.67
2023-03-04T03:24:08.956Z,0.20
2023-03-04T03:26:35.532Z,0.70
2023-03-04T03:29:02.022Z,0.63
2023-03-04T03:31:28.896Z,1.03
2023-03-04T03:33:55.501Z,0.30
2023-03-04T03:36:22.077Z,0.57
2023-03-04T03:38:51.789Z,0.63
2023-03-04T03:41:18.313Z,0.20
2023-03-04T03:43:44.820Z,0.50
2023-03-04T03:46:11.356Z,0.30
2023-03-04T03:48:37.852Z,1.93
2023-03-04T03:51:04.472Z,0.50
2023-03-04T03:53:30.919Z,0.50
2023-03-04T03:55:59.076Z,0.70
2023-03-04T03:58:27.067Z,0.30
2023-03-04T04:00:54.652Z,0.40
2023-03-04T04:03:22.389Z,0.30
2023-03-04T04:05:48.903Z,0.67
2023-03-04T04:08:17.059Z,0.30
2023-03-04T04:10:43.971Z,0.30
2023-03-04T04:13:10.985Z,0.53
2023-03-04T04:15:38.756Z,0.20
2023-03-04T04:18:06.642Z,0.30
2023-03-04T04:20:33.453Z,0.23
2023-03-04T04:23:00.003Z,1.07
2023-03-04T04:25:26.685Z,0.50
2023-03-04T04:27:53.346Z,0.83
2023-03-04T04:30:19.943Z,1.60
2023-03-04T04:32:46.481Z,0.30
2023-03-04T04:35:12.979Z,0.70
2023-03-04T04:37:39.459Z,2.20
2023-03-04T04:40:06.532Z,0.50
2023-03-04T04:42:33.276Z,0.90
2023-03-04T04:44:59.808Z,0.30
2023-03-04T04:47:26.383Z,0.30
2023-03-04T04:49:52.936Z,0.40
2023-03-04T04:52:19.626Z,0.67
2023-03-04T04:54:46.166Z,0.80
2023-03-04T04:57:12.612Z,1.23
2023-03-04T04:59:39.088Z,0.50
2023-03-04T05:02:05.633Z,0.53
2023-03-04T05:04:32.171Z,0.33
2023-03-04T05:06:58.662Z,0.30
2023-03-04T05:09:25.145Z,0.70
2023-03-04T05:11:51.666Z,0.70
2023-03-04T05:14:18.226Z,2.07
2023-03-04T05:16:44.772Z,0.30
2023-03-04T05:19:11.355Z,0.30
2023-03-04T05:21:37.854Z,0.60
2023-03-04T05:24:04.498Z,1.23
2023-03-04T05:26:31.026Z,0.40
2023-03-04T05:28:57.501Z,0.30
2023-03-04T05:31:24.052Z,0.60
2023-03-04T05:33:50.578Z,0.30
2023-03-04T05:36:17.092Z,0.83
2023-03-04T05:38:43.647Z,0.40
2023-03-04T05:41:10.175Z,0.50
2023-03-04T05:43:38.434Z,0.30
2023-03-04T05:46:05.240Z,1.47
2023-03-04T05:48:31.931Z,2.33
2023-03-04T05:51:00.406Z,0.53
2023-03-04T05:53:27.891Z,0.40
2023-03-04T05:55:54.775Z,0.50
2023-03-04T05:58:21.509Z,0.70
2023-03-04T06:00:48.087Z,2.37
2023-03-04T06:03:16.812Z,1.23
2023-03-04T06:05:43.861Z,0.53
2023-03-04T06:08:11.649Z,1.23
2023-03-04T06:10:39.312Z,0.30
2023-03-04T06:13:06.070Z,0.30
2023-03-04T06:15:32.674Z,0.30
2023-03-04T06:17:59.162Z,0.30
2023-03-04T06:20:25.660Z,0.80
2023-03-04T06:22:52.108Z,1.43
2023-03-04T06:25:18.591Z,0.53
2023-03-04T06:27:45.040Z,0.60
2023-03-04T06:30:11.990Z,0.60
2023-03-04T06:32:38.520Z,1.13
2023-03-04T06:35:05.506Z,0.40
2023-03-04T06:37:31.972Z,0.40
2023-03-04T06:39:58.430Z,1.63
2023-03-04T06:42:24.881Z,0.40
2023-03-04T06:44:51.392Z,1.30
2023-03-04T06:47:18.883Z,1.17
2023-03-04T06:49:45.365Z,0.30
2023-03-04T06:52:12.983Z,0.57
2023-03-04T06:54:40.165Z,1.43
2023-03-04T06:57:07.080Z,1.23
2023-03-04T06:59:34.239Z,0.70
2023-03-04T07:02:00.757Z,0.50
2023-03-04T07:04:27.323Z,0.77
2023-03-04T07:06:53.970Z,0.60
2023-03-04T07:09:20.581Z,0.47
2023-03-04T07:11:47.096Z,0.70
2023-03-04T07:14:13.963Z,0.50
2023-03-04T07:16:40.695Z,0.67
2023-03-04T07:19:07.244Z,0.73
2023-03-04T07:21:34.053Z,0.70
2023-03-04T07:24:00.638Z,1.90
2023-03-04T07:26:27.212Z,0.80
2023-03-04T07:28:54.667Z,1.07
2023-03-04T07:31:21.250Z,0.97
2023-03-04T07:33:49.384Z,1.37
2023-03-04T07:36:16.202Z,0.67
2023-03-04T07:38:47.741Z,1.20
2023-03-04T07:41:14.428Z,2.37
2023-03-04T07:43:40.944Z,1.60
2023-03-04T07:46:07.839Z,1.30
2023-03-04T07:48:34.528Z,1.07
2023-03-04T07:51:09.010Z,2.37
2023-03-04T07:53:36.978Z,1.60
2023-03-04T07:56:04.554Z,0.90
2023-03-04T07:58:31.156Z,1.83
2023-03-04T08:00:57.796Z,3.10
2023-03-04T08:03:24.453Z,2.80
2023-03-04T08:05:51.568Z,1.33
2023-03-04T08:08:18.914Z,0.57
2023-03-04T08:10:48.089Z,1.53
2023-03-04T08:13:14.650Z,2.23
2023-03-04T08:15:42.673Z,1.37
2023-03-04T08:18:09.392Z,1.17
2023-03-04T08:20:36.165Z,2.97
2023-03-04T08:23:02.696Z,1.57
2023-03-04T08:25:29.233Z,1.90
2023-03-04T08:27:55.815Z,1.40
2023-03-04T08:30:22.455Z,1.30
2023-03-04T08:32:48.987Z,1.33
2023-03-04T08:35:15.558Z,2.30
2023-03-04T08:37:42.059Z,2.20
2023-03-04T08:40:10.455Z,2.67
2023-03-04T08:42:36.931Z,1.10
2023-03-04T08:45:03.871Z,3.63
2023-03-04T08:47:30.396Z,3.23
2023-03-04T08:49:58.579Z,1.90
2023-03-04T08:52:25.084Z,2.13
2023-03-04T08:54:51.580Z,2.03
2023-03-04T08:57:18.083Z,1.40
2023-03-04T08:59:44.588Z,2.90
2023-03-04T09:02:11.180Z,2.57
2023-03-04T09:04:37.829Z,3.00
2023-03-04T09:07:04.477Z,2.60
2023-03-04T09:09:31.044Z,1.90
2023-03-04T09:11:57.826Z,3.83
2023-03-04T09:14:24.325Z,2.07
2023-03-04T09:16:50.890Z,2.43
2023-03-04T09:19:17.735Z,2.37
2023-03-04T09:21:44.242Z,1.60
2023-03-04T09:24:10.689Z,3.40
2023-03-04T09:26:37.266Z,1.07
2023-03-04T09:29:04.360Z,1.43
2023-03-04T09:31:31.238Z,2.83
2023-03-04T09:33:59.117Z,2.37
2023-03-04T09:36:25.762Z,2.40
2023-03-04T09:39:01.843Z,2.87
2023-03-04T09:41:57.421Z,2.40
2023-03-04T09:44:23.892Z,1.97
2023-03-04T09:46:51.430Z,1.60
2023-03-04T09:49:19.766Z,2.70
2023-03-04T09:51:55.310Z,2.23
2023-03-04T09:54:37.568Z,2.03
2023-03-04T09:57:21.599Z,4.80
2023-03-04T09:59:54.128Z,2.67
2023-03-04T10:02:44.996Z,2.37
2023-03-04T10:05:16.710Z,3.80
2023-03-04T10:07:47.244Z,3.40
2023-03-04T10:10:36.101Z,3.40
2023-03-04T10:13:03.572Z,2.60
2023-03-04T10:15:36.185Z,4.13
2023-03-04T10:18:25.335Z,2.53
2023-03-04T10:20:59.078Z,2.17
2023-03-04T10:23:27.939Z,3.50
2023-03-04T10:25:55.596Z,3.23
2023-03-04T10:28:27.640Z,1.87
2023-03-04T10:31:34.213Z,4.67
2023-03-04T10:34:01.013Z,3.00
2023-03-04T10:36:30.514Z,4.80
2023-03-04T10:39:10.006Z,3.20
2023-03-04T10:41:36.535Z,3.27
2023-03-04T10:44:04.823Z,3.23
2023-03-04T10:46:32.353Z,4.30
2023-03-04T10:48:59.190Z,3.87
2023-03-04T10:51:28.567Z,5.60
2023-03-04T10:54:08.178Z,5.17
2023-03-04T10:56:46.678Z,3.90
2023-03-04T10:59:25.345Z,3.43
2023-03-04T11:01:54.093Z,4.53
2023-03-04T11:04:25.556Z,3.17
2023-03-04T11:06:52.671Z,3.55
2023-03-04T11:09:30.622Z,3.58
2023-03-04T11:12:01.771Z,4.20
2023-03-04T11:14:31.743Z,3.15
2023-03-04T11:17:00.746Z,2.85
2023-03-04T11:19:41.869Z,3.72
2023-03-04T11:22:10.726Z,4.10
2023-03-04T11:24:37.861Z,5.05
2023-03-04T11:27:18.887Z,4.30
2023-03-04T11:29:55.548Z,3.90
2023-03-04T11:32:24.750Z,4.15
2023-03-04T11:35:18.527Z,3.58
2023-03-04T11:37:54.183Z,4.28
2023-03-04T11:40:26.306Z,4.30
2023-03-04T11:42:57.620Z,3.47
2023-03-04T11:45:30.045Z,4.90
2023-03-04T11:48:00.364Z,4.25
2023-03-04T11:50:51.991Z,3.45
2023-03-04T11:53:30.870Z,3.53
2023-03-04T11:56:11.245Z,4.60
2023-03-04T11:59:25.334Z,3.78
2023-03-04T12:01:51.808Z,3.20
2023-03-04T12:04:52.286Z,4.03
2023-03-04T12:07:47.032Z,4.18
2023-03-04T12:10:19.502Z,3.72
2023-03-04T12:12:57.078Z,2.40
2023-03-04T12:15:29.373Z,3.65
2023-03-04T12:18:34.166Z,3.58
2023-03-04T12:21:14.580Z,3.58
2023-03-04T12:23:53.252Z,4.50
2023-03-04T12:26:36.848Z,3.88
2023-03-04T12:29:04.734Z,3.13
2023-03-04T12:31:36.710Z,3.97
2023-03-04T12:34:12.373Z,2.70
2023-03-04T12:36:42.806Z,3.00
2023-03-04T12:39:18.262Z,4.80
2023-03-04T12:42:02.975Z,4.40
2023-03-04T12:44:34.127Z,3.40
2023-03-04T12:47:08.798Z,3.22
2023-03-04T12:49:42.109Z,4.88
2023-03-04T12:52:14.621Z,3.83
2023-03-04T12:54:44.855Z,2.92
2023-03-04T12:57:14.521Z,4.47
2023-03-04T13:00:05.228Z,4.38
2023-03-04T13:02:54.115Z,3.25
2023-03-04T13:05:38.973Z,4.13
2023-03-04T13:08:16.473Z,3.25
2023-03-04T13:10:42.950Z,3.85
2023-03-04T13:13:36.507Z,2.33
2023-03-04T13:16:24.675Z,4.78
2023-03-04T13:18:51.224Z,3.92
2023-03-04T13:21:23.520Z,2.83
2023-03-04T13:23:51.522Z,3.80
2023-03-04T13:26:31.135Z,3.78
2023-03-04T13:29:16.338Z,4.55
2023-03-04T13:32:03.933Z,2.70
2023-03-04T13:34:49.599Z,2.58
2023-03-04T13:37:32.966Z,2.58
2023-03-04T13:40:24.409Z,2.95
2023-03-04T13:42:50.973Z,2.92
2023-03-04T13:45:39.107Z,3.92
2023-03-04T13:48:24.093Z,3.13
2023-03-04T13:50:51.460Z,2.95
2023-03-04T13:53:40.123Z,3.90
2023-03-04T13:56:12.793Z,3.70
2023-03-04T13:58:39.727Z,4.63
2023-03-04T14:01:07.428Z,4.13
2023-03-04T14:03:35.194Z,2.95
2023-03-04T14:06:11.820Z,3.95
2023-03-04T14:08:38.261Z,3.22
2023-03-04T14:11:04.789Z,2.85
2023-03-04T14:13:31.665Z,2.55
2023-03-04T14:15:59.609Z,3.03
2023-03-04T14:18:26.345Z,2.25
2023-03-04T14:21:00.040Z,2.42
2023-03-04T14:23:35.462Z,2.83
2023-03-04T14:26:14.554Z,3.53
2023-03-04T14:28:49.593Z,1.83
2023-03-04T14:31:18.478Z,2.33
2023-03-04T14:33:47.888Z,3.03
2023-03-04T14:36:24.530Z,2.53
2023-03-04T14:38:56.123Z,3.20
2023-03-04T14:41:35.644Z,3.38
2023-03-04T14:44:20.850Z,2.38
2023-03-04T14:47:06.052Z,2.28
2023-03-04T14:49:35.945Z,3.30
2023-03-04T14:52:02.762Z,2.97
2023-03-04T14:54:31.327Z,3.17
2023-03-04T14:56:59.089Z,2.75
2023-03-04T14:59:34.061Z,2.92
2023-03-04T15:02:21.432Z,2.70
2023-03-04T15:04:48.692Z,3.45
2023-03-04T15:07:16.967Z,3.42
2023-03-04T15:09:53.290Z,2.22
2023-03-04T15:12:26.027Z,3.65
2023-03-04T15:15:01.001Z,2.53
2023-03-04T15:17:37.788Z,2.20
